createdAt,value
2018-11-03T00:01:42.980Z,101657.00
2018-11-03T00:04:11.140Z,101642.00
2018-11-03T00:06:39.276Z,101635.00
2018-11-03T00:09:10.143Z,101646.00
2018-11-03T00:11:38.639Z,101633.00
2018-11-03T00:14:07.236Z,101641.00
2018-11-03T00:16:35.609Z,101639.00
2018-11-03T00:19:04.251Z,101632.00
2018-11-03T00:21:32.349Z,101634.00
2018-11-03T00:24:00.576Z,101629.00
2018-11-03T00:26:29.127Z,101626.00
2018-11-03T00:28:57.283Z,101613.00
2018-11-03T00:31:32.041Z,101608.00
2018-11-03T00:34:00.199Z,101617.00
2018-11-03T00:36:28.352Z,101628.00
2018-11-03T00:38:56.454Z,101619.00
2018-11-03T00:41:24.532Z,101619.00
2018-11-03T00:43:52.794Z,101621.00
2018-11-03T00:46:20.904Z,101621.00
2018-11-03T00:48:49.190Z,101637.00
2018-11-03T00:51:17.296Z,101635.00
2018-11-03T00:53:45.419Z,101631.00
2018-11-03T00:56:13.745Z,101641.00
2018-11-03T00:58:41.900Z,101644.00
2018-11-03T01:01:10.238Z,101649.00
2018-11-03T01:03:44.902Z,101647.00
2018-11-03T01:06:12.984Z,101643.00
2018-11-03T01:08:41.121Z,101645.00
2018-11-03T01:11:09.560Z,101650.00
2018-11-03T01:13:37.708Z,101656.00
2018-11-03T01:16:06.361Z,101652.00
2018-11-03T01:18:34.535Z,101658.00
2018-11-03T01:21:02.674Z,101656.00
2018-11-03T01:23:30.805Z,101657.00
2018-11-03T01:25:58.902Z,101657.00
2018-11-03T01:28:27.049Z,101659.00
2018-11-03T01:30:55.278Z,101653.00
2018-11-03T01:33:23.447Z,101658.00
2018-11-03T01:35:51.600Z,101666.00
2018-11-03T01:38:19.732Z,101659.00
2018-11-03T01:40:47.816Z,101661.00
2018-11-03T01:43:15.913Z,101662.00
2018-11-03T01:45:44.101Z,101659.00
2018-11-03T01:48:12.242Z,101659.00
2018-11-03T01:50:40.337Z,101660.00
2018-11-03T01:53:08.400Z,101652.00
2018-11-03T01:55:36.491Z,101655.00
2018-11-03T01:58:04.734Z,101649.00
2018-11-03T02:00:32.840Z,101655.00
2018-11-03T02:03:00.872Z,101648.00
2018-11-03T02:05:28.949Z,101655.00
2018-11-03T02:07:57.001Z,101654.00
2018-11-03T02:10:25.136Z,101658.00
2018-11-03T02:12:53.240Z,101654.00
2018-11-03T02:15:21.315Z,101656.00
2018-11-03T02:17:49.603Z,101645.00
2018-11-03T02:20:17.729Z,101640.00
2018-11-03T02:22:45.789Z,101641.00
2018-11-03T02:25:13.836Z,101641.00
2018-11-03T02:27:41.989Z,101644.00
2018-11-03T02:30:11.097Z,101647.00
2018-11-03T02:32:39.324Z,101640.00
2018-11-03T02:35:08.854Z,101642.00
2018-11-03T02:37:37.512Z,101642.00
2018-11-03T02:40:07.574Z,101648.00
2018-11-03T02:42:35.679Z,101644.00
2018-11-03T02:45:04.949Z,101648.00
2018-11-03T02:47:33.139Z,101641.00
2018-11-03T02:50:01.286Z,101649.00
2018-11-03T02:52:29.485Z,101647.00
2018-11-03T02:55:04.394Z,101646.00
2018-11-03T02:57:32.502Z,101653.00
2018-11-03T03:00:00.552Z,101652.00
2018-11-03T03:02:28.749Z,101649.00
2018-11-03T03:04:57.016Z,101654.00
2018-11-03T03:07:25.136Z,101650.00
2018-11-03T03:09:53.207Z,101658.00
2018-11-03T03:12:21.326Z,101661.00
2018-11-03T03:14:49.399Z,101659.00
2018-11-03T03:17:17.501Z,101675.00
2018-11-03T03:19:45.565Z,101674.00
2018-11-03T03:22:13.593Z,101670.00
2018-11-03T03:24:41.716Z,101663.00
2018-11-03T03:27:09.884Z,101671.00
2018-11-03T03:29:38.123Z,101672.00
2018-11-03T03:32:06.497Z,101667.00
2018-11-03T03:34:34.913Z,101663.00
2018-11-03T03:37:03.066Z,101665.00
2018-11-03T03:39:31.187Z,101668.00
2018-11-03T03:41:59.326Z,101668.00
2018-11-03T03:44:27.415Z,101661.00
2018-11-03T03:46:55.427Z,101659.00
2018-11-03T03:49:23.613Z,101659.00
2018-11-03T03:51:51.748Z,101663.00
2018-11-03T03:54:19.866Z,101669.00
2018-11-03T03:56:47.995Z,101662.00
2018-11-03T03:59:16.045Z,101680.00
2018-11-03T04:01:44.091Z,101668.00
2018-11-03T04:04:12.177Z,101670.00
2018-11-03T04:06:40.253Z,101671.00
2018-11-03T04:09:08.871Z,101676.00
2018-11-03T04:11:36.975Z,101664.00
2018-11-03T04:14:05.113Z,101667.00
2018-11-03T04:16:33.208Z,101671.00
2018-11-03T04:19:01.277Z,101666.00
2018-11-03T04:21:31.130Z,101671.00
2018-11-03T04:23:59.217Z,101665.00
2018-11-03T04:26:28.528Z,101671.00
2018-11-03T04:28:56.992Z,101665.00
2018-11-03T04:31:25.330Z,101665.00
2018-11-03T04:33:53.366Z,101677.00
2018-11-03T04:36:21.446Z,101666.00
2018-11-03T04:38:49.549Z,101668.00
2018-11-03T04:41:17.583Z,101680.00
2018-11-03T04:43:45.590Z,101678.00
2018-11-03T04:46:13.635Z,101673.00
2018-11-03T04:48:41.607Z,101676.00
2018-11-03T04:51:09.722Z,101679.00
2018-11-03T04:53:37.779Z,101686.00
2018-11-03T04:56:05.982Z,101685.00
2018-11-03T04:58:34.027Z,101684.00
2018-11-03T05:01:02.050Z,101675.00
2018-11-03T05:03:30.111Z,101685.00
2018-11-03T05:05:58.179Z,101687.00
2018-11-03T05:08:26.266Z,101680.00
2018-11-03T05:10:54.294Z,101687.00
2018-11-03T05:13:22.525Z,101677.00
2018-11-03T05:15:50.589Z,101686.00
2018-11-03T05:18:18.641Z,101686.00
2018-11-03T05:20:46.664Z,101692.00
2018-11-03T05:23:14.688Z,101693.00
2018-11-03T05:25:42.814Z,101692.00
2018-11-03T05:28:10.875Z,101686.00
2018-11-03T05:30:39.052Z,101687.00
2018-11-03T05:33:07.125Z,101693.00
2018-11-03T05:35:35.243Z,101692.00
2018-11-03T05:38:03.393Z,101689.00
2018-11-03T05:40:31.470Z,101693.00
2018-11-03T05:42:59.514Z,101688.00
2018-11-03T05:45:27.660Z,101694.00
2018-11-03T05:47:55.736Z,101696.00
2018-11-03T05:50:23.824Z,101696.00
2018-11-03T05:52:51.980Z,101698.00
2018-11-03T05:55:20.001Z,101697.00
2018-11-03T05:57:48.076Z,101701.00
2018-11-03T06:00:16.323Z,101710.00
2018-11-03T06:02:44.473Z,101700.00
2018-11-03T06:05:12.658Z,101707.00
2018-11-03T06:07:40.797Z,101703.00
2018-11-03T06:10:09.151Z,101697.00
2018-11-03T06:12:37.431Z,101695.00
2018-11-03T06:15:06.327Z,101708.00
2018-11-03T06:17:34.425Z,101701.00
2018-11-03T06:20:02.469Z,101705.00
2018-11-03T06:22:30.636Z,101705.00
2018-11-03T06:24:58.681Z,101698.00
2018-11-03T06:27:26.791Z,101709.00
2018-11-03T06:29:54.895Z,101707.00
2018-11-03T06:32:22.944Z,101704.00
2018-11-03T06:34:51.063Z,101705.00
2018-11-03T06:37:19.139Z,101709.00
2018-11-03T06:39:47.315Z,101716.00
2018-11-03T06:42:15.548Z,101708.00
2018-11-03T06:44:43.713Z,101715.00
2018-11-03T06:47:11.821Z,101714.00
2018-11-03T06:49:39.981Z,101719.00
2018-11-03T06:52:08.279Z,101709.00
2018-11-03T06:54:36.291Z,101717.00
2018-11-03T06:57:04.614Z,101719.00
2018-11-03T06:59:32.689Z,101718.00
2018-11-03T07:02:00.801Z,101714.00
2018-11-03T07:04:28.969Z,101714.00
2018-11-03T07:06:57.044Z,101713.00
2018-11-03T07:09:25.245Z,101718.00
2018-11-03T07:11:53.343Z,101719.00
2018-11-03T07:14:21.453Z,101716.00
2018-11-03T07:16:49.522Z,101717.00
2018-11-03T07:19:17.576Z,101713.00
2018-11-03T07:21:45.931Z,101721.00
2018-11-03T07:24:14.029Z,101717.00
2018-11-03T07:26:43.824Z,101713.00
2018-11-03T07:29:12.000Z,101724.00
2018-11-03T07:31:40.208Z,101723.00
2018-11-03T07:34:08.332Z,101709.00
2018-11-03T07:36:36.531Z,101709.00
2018-11-03T07:39:06.888Z,101720.00
2018-11-03T07:41:35.178Z,101709.00
2018-11-03T07:44:06.732Z,101704.00
2018-11-03T07:46:34.925Z,101702.00
2018-11-03T07:49:03.157Z,101706.00
2018-11-03T07:51:31.278Z,101716.00
2018-11-03T07:53:59.460Z,101716.00
2018-11-03T07:56:27.672Z,101725.00
2018-11-03T07:58:55.815Z,101729.00
2018-11-03T08:01:24.096Z,101722.00
2018-11-03T08:03:52.361Z,101715.00
2018-11-03T08:06:20.512Z,101715.00
2018-11-03T08:08:48.780Z,101720.00
2018-11-03T08:11:16.896Z,101709.00
2018-11-03T08:13:45.097Z,101719.00
2018-11-03T08:16:13.225Z,101703.00
2018-11-03T08:18:41.448Z,101706.00
2018-11-03T08:21:09.617Z,101700.00
2018-11-03T08:23:37.810Z,101702.00
2018-11-03T08:26:06.011Z,101706.00
2018-11-03T08:28:34.205Z,101708.00
2018-11-03T08:31:02.418Z,101702.00
2018-11-03T08:33:30.726Z,101706.00
2018-11-03T08:35:58.961Z,101710.00
2018-11-03T08:38:27.152Z,101709.00
2018-11-03T08:40:55.419Z,101715.00
2018-11-03T08:43:23.600Z,101722.00
2018-11-03T08:45:51.699Z,101713.00
2018-11-03T08:48:19.969Z,101709.00
2018-11-03T08:50:48.254Z,101718.00
2018-11-03T08:53:16.523Z,101706.00
2018-11-03T08:55:44.672Z,101713.00
2018-11-03T08:58:12.823Z,101710.00
2018-11-03T09:00:40.970Z,101707.00
2018-11-03T09:03:09.194Z,101712.00
2018-11-03T09:05:37.395Z,101696.00
2018-11-03T09:08:05.904Z,101699.00
2018-11-03T09:10:34.411Z,101700.00
2018-11-03T09:13:02.566Z,101702.00
2018-11-03T09:15:30.774Z,101703.00
2018-11-03T09:18:02.235Z,101707.00
2018-11-03T09:20:30.459Z,101706.00
2018-11-03T09:22:58.857Z,101701.00
2018-11-03T09:25:27.084Z,101697.00
2018-11-03T09:27:55.433Z,101696.00
2018-11-03T09:30:23.602Z,101698.00
2018-11-03T09:32:51.851Z,101695.00
2018-11-03T09:35:20.052Z,101695.00
2018-11-03T09:37:48.378Z,101690.00
2018-11-03T09:40:17.331Z,101695.00
2018-11-03T09:42:47.062Z,101694.00
2018-11-03T09:45:15.409Z,101680.00
2018-11-03T09:47:43.971Z,101672.00
2018-11-03T09:50:13.739Z,101689.00
2018-11-03T09:52:42.308Z,101678.00
2018-11-03T09:55:13.663Z,101672.00
2018-11-03T09:57:42.252Z,101677.00
2018-11-03T10:00:18.034Z,101671.00
2018-11-03T10:02:46.390Z,101665.00
2018-11-03T10:05:15.034Z,101673.00
2018-11-03T10:07:43.376Z,101680.00
2018-11-03T10:10:17.416Z,101682.00
2018-11-03T10:12:45.832Z,101675.00
2018-11-03T10:15:15.303Z,101683.00
2018-11-03T10:17:43.979Z,101677.00
2018-11-03T10:20:12.148Z,101667.00
2018-11-03T10:22:40.503Z,101673.00
2018-11-03T10:25:14.292Z,101672.00
2018-11-03T10:27:43.234Z,101667.00
2018-11-03T10:30:13.041Z,101674.00
2018-11-03T10:32:41.629Z,101658.00
2018-11-03T10:35:10.958Z,101654.00
2018-11-03T10:37:39.390Z,101656.00
2018-11-03T10:40:13.932Z,101644.00
2018-11-03T10:42:42.501Z,101638.00
2018-11-03T10:45:12.135Z,101642.00
2018-11-03T10:47:40.658Z,101628.00
2018-11-03T10:50:11.619Z,101622.00
2018-11-03T10:52:40.799Z,101636.00
2018-11-03T10:55:10.342Z,101629.00
2018-11-03T10:57:38.837Z,101627.00
2018-11-03T11:00:15.155Z,101616.00
2018-11-03T11:02:49.079Z,101625.00
2018-11-03T11:06:24.684Z,101604.00
2018-11-03T11:08:58.371Z,101606.00
2018-11-03T11:11:32.456Z,101597.00
2018-11-03T11:14:00.668Z,101598.00
2018-11-03T11:16:29.064Z,101597.00
2018-11-03T11:18:57.278Z,101583.00
2018-11-03T11:21:25.500Z,101594.00
2018-11-03T11:23:54.190Z,101581.00
2018-11-03T11:26:22.436Z,101590.00
2018-11-03T11:28:50.962Z,101581.00
2018-11-03T11:31:19.406Z,101578.00
2018-11-03T11:33:47.611Z,101578.00
2018-11-03T11:36:15.876Z,101574.00
2018-11-03T11:38:44.078Z,101576.00
2018-11-03T11:41:12.303Z,101568.00
2018-11-03T11:43:40.467Z,101572.00
2018-11-03T11:46:08.705Z,101560.00
2018-11-03T11:48:36.845Z,101555.00
2018-11-03T11:51:05.272Z,101562.00
2018-11-03T11:53:33.491Z,101495.00
2018-11-03T11:56:01.648Z,101545.00
2018-11-03T11:58:29.908Z,101550.00
2018-11-03T12:00:58.402Z,101546.00
2018-11-03T12:03:26.537Z,101540.00
2018-11-03T12:05:54.662Z,101542.00
2018-11-03T12:08:23.097Z,101525.00
2018-11-03T12:10:51.253Z,101544.00
2018-11-03T12:13:19.496Z,101535.00
2018-11-03T12:15:47.763Z,101539.00
2018-11-03T12:18:15.955Z,101525.00
2018-11-03T12:20:44.130Z,101516.00
2018-11-03T12:23:12.387Z,101519.00
2018-11-03T12:25:40.631Z,101520.00
2018-11-03T12:28:08.893Z,101512.00
2018-11-03T12:30:37.176Z,101508.00
2018-11-03T12:33:05.644Z,101508.00
2018-11-03T12:35:33.926Z,101497.00
2018-11-03T12:38:02.055Z,101498.00
2018-11-03T12:40:30.214Z,101506.00
2018-11-03T12:42:58.498Z,101501.00
2018-11-03T12:45:26.692Z,101498.00
2018-11-03T12:47:54.867Z,101500.00
2018-11-03T12:50:23.064Z,101491.00
2018-11-03T12:52:51.231Z,101488.00
2018-11-03T12:55:19.393Z,101490.00
2018-11-03T12:57:47.550Z,101487.00
2018-11-03T13:00:16.178Z,101480.00
2018-11-03T13:02:45.106Z,101468.00
2018-11-03T13:05:13.561Z,101472.00
2018-11-03T13:07:42.996Z,101463.00
2018-11-03T13:10:11.693Z,101457.00
2018-11-03T13:12:40.444Z,101470.00
2018-11-03T13:15:09.785Z,101465.00
2018-11-03T13:17:38.048Z,101462.00
2018-11-03T13:20:08.553Z,101467.00
2018-11-03T13:22:36.837Z,101463.00
2018-11-03T13:25:06.826Z,101454.00
2018-11-03T13:27:36.252Z,101452.00
2018-11-03T13:30:05.108Z,101451.00
2018-11-03T13:32:33.248Z,101454.00
2018-11-03T13:35:01.602Z,101456.00
2018-11-03T13:37:29.802Z,101445.00
2018-11-03T13:39:58.265Z,101447.00
2018-11-03T13:42:26.425Z,101449.00
2018-11-03T13:44:54.596Z,101440.00
2018-11-03T13:47:23.010Z,101441.00
2018-11-03T13:49:51.238Z,101431.00
2018-11-03T13:52:19.649Z,101436.00
2018-11-03T13:54:47.824Z,101422.00
2018-11-03T13:57:16.012Z,101420.00
2018-11-03T13:59:44.504Z,101415.00
2018-11-03T14:02:12.756Z,101412.00
2018-11-03T14:04:41.077Z,101408.00
2018-11-03T14:07:09.168Z,101401.00
2018-11-03T14:09:37.508Z,101400.00
2018-11-03T14:12:06.209Z,101393.00
2018-11-03T14:14:34.312Z,101395.00
2018-11-03T14:17:02.700Z,101393.00
2018-11-03T14:19:30.783Z,101388.00
2018-11-03T14:21:58.951Z,101385.00
2018-11-03T14:24:27.110Z,101381.00
2018-11-03T14:26:55.502Z,101387.00
2018-11-03T14:29:23.991Z,101394.00
2018-11-03T14:31:52.269Z,101369.00
2018-11-03T14:34:21.051Z,101382.00
2018-11-03T14:36:49.136Z,101368.00
2018-11-03T14:39:17.333Z,101377.00
2018-11-03T14:41:45.489Z,101367.00
2018-11-03T14:44:13.904Z,101366.00
2018-11-03T14:46:42.139Z,101370.00
2018-11-03T14:49:10.454Z,101356.00
2018-11-03T14:51:38.916Z,101363.00
2018-11-03T14:54:07.048Z,101371.00
2018-11-03T14:56:35.360Z,101361.00
2018-11-03T14:59:03.492Z,101358.00
2018-11-03T15:01:31.661Z,101348.00
2018-11-03T15:03:59.899Z,101357.00
2018-11-03T15:06:28.957Z,101352.00
2018-11-03T15:08:57.235Z,101347.00
2018-11-03T15:11:25.504Z,101350.00
2018-11-03T15:13:54.030Z,101338.00
2018-11-03T15:16:22.591Z,101337.00
2018-11-03T15:18:50.796Z,101346.00
2018-11-03T15:21:19.127Z,101341.00
2018-11-03T15:23:47.331Z,101346.00
2018-11-03T15:26:15.761Z,101338.00
2018-11-03T15:28:44.008Z,101331.00
2018-11-03T15:31:12.236Z,101335.00
2018-11-03T15:33:40.474Z,101340.00
2018-11-03T15:36:08.677Z,101334.00
2018-11-03T15:38:37.873Z,101334.00
2018-11-03T15:41:06.341Z,101336.00
2018-11-03T15:43:34.488Z,101332.00
2018-11-03T15:46:02.616Z,101334.00
2018-11-03T15:48:30.952Z,101334.00
2018-11-03T15:50:59.326Z,101328.00
2018-11-03T15:53:27.880Z,101337.00
2018-11-03T15:55:56.163Z,101330.00
2018-11-03T15:58:24.357Z,101326.00
2018-11-03T16:00:52.770Z,101336.00
2018-11-03T16:03:20.994Z,101334.00
2018-11-03T16:05:49.254Z,101329.00
2018-11-03T16:08:17.505Z,101330.00
2018-11-03T16:10:45.647Z,101326.00
2018-11-03T16:13:13.861Z,101327.00
2018-11-03T16:15:42.497Z,101330.00
2018-11-03T16:18:10.729Z,101335.00
2018-11-03T16:20:38.925Z,101341.00
2018-11-03T16:23:07.164Z,101339.00
2018-11-03T16:25:35.352Z,101331.00
2018-11-03T16:28:03.648Z,101334.00
2018-11-03T16:30:32.078Z,101339.00
2018-11-03T16:33:00.414Z,101332.00
2018-11-03T16:35:28.958Z,101331.00
2018-11-03T16:37:57.234Z,101335.00
2018-11-03T16:40:25.548Z,101332.00
2018-11-03T16:42:53.818Z,101349.00
2018-11-03T16:45:22.262Z,101328.00
2018-11-03T16:47:50.625Z,101324.00
2018-11-03T16:50:18.788Z,101330.00
2018-11-03T16:52:47.077Z,101333.00
2018-11-03T16:55:15.338Z,101327.00
2018-11-03T16:57:43.488Z,101326.00
2018-11-03T17:00:13.230Z,101323.00
2018-11-03T17:02:41.834Z,101337.00
2018-11-03T17:05:11.413Z,101323.00
2018-11-03T17:07:39.726Z,101330.00
2018-11-03T17:10:11.281Z,101326.00
2018-11-03T17:12:40.691Z,101327.00
2018-11-03T17:15:08.828Z,101326.00
2018-11-03T17:17:37.501Z,101321.00
2018-11-03T17:20:06.237Z,101320.00
2018-11-03T17:22:34.416Z,101313.00
2018-11-03T17:25:02.714Z,101321.00
2018-11-03T17:27:30.965Z,101318.00
2018-11-03T17:29:59.385Z,101315.00
2018-11-03T17:32:28.444Z,101317.00
2018-11-03T17:34:56.696Z,101320.00
2018-11-03T17:37:24.848Z,101313.00
2018-11-03T17:39:53.035Z,101324.00
2018-11-03T17:42:21.405Z,101309.00
2018-11-03T17:44:49.654Z,101311.00
2018-11-03T17:47:18.049Z,101316.00
2018-11-03T17:49:46.351Z,101310.00
2018-11-03T17:52:14.517Z,101308.00
2018-11-03T17:54:42.944Z,101314.00
2018-11-03T17:57:11.240Z,101307.00
2018-11-03T17:59:39.528Z,101304.00
2018-11-03T18:02:07.851Z,101306.00
2018-11-03T18:04:36.050Z,101307.00
2018-11-03T18:07:04.496Z,101297.00
2018-11-03T18:09:32.879Z,101298.00
2018-11-03T18:12:01.239Z,101291.00
2018-11-03T18:14:29.611Z,101298.00
2018-11-03T18:16:57.840Z,101302.00
2018-11-03T18:19:26.079Z,101301.00
2018-11-03T18:21:54.378Z,101297.00
2018-11-03T18:24:22.717Z,101305.00
2018-11-03T18:26:50.955Z,101304.00
2018-11-03T18:29:19.196Z,101299.00
2018-11-03T18:31:47.471Z,101294.00
2018-11-03T18:34:15.723Z,101291.00
2018-11-03T18:36:44.005Z,101288.00
2018-11-03T18:39:12.323Z,101282.00
2018-11-03T18:41:40.714Z,101281.00
2018-11-03T18:44:09.146Z,101281.00
2018-11-03T18:46:37.533Z,101273.00
2018-11-03T18:49:06.288Z,101269.00
2018-11-03T18:51:34.569Z,101269.00
2018-11-03T18:54:02.854Z,101273.00
2018-11-03T18:56:31.216Z,101274.00
2018-11-03T18:58:59.364Z,101264.00
2018-11-03T19:01:27.552Z,101262.00
2018-11-03T19:03:55.819Z,101268.00
2018-11-03T19:06:24.069Z,101270.00
2018-11-03T19:08:52.342Z,101267.00
2018-11-03T19:11:20.652Z,101265.00
2018-11-03T19:13:48.965Z,101260.00
2018-11-03T19:16:17.301Z,101258.00
2018-11-03T19:18:45.653Z,101256.00
2018-11-03T19:21:13.925Z,101253.00
2018-11-03T19:23:42.436Z,101247.00
2018-11-03T19:26:10.854Z,101259.00
2018-11-03T19:28:39.091Z,101250.00
2018-11-03T19:31:07.442Z,101250.00
2018-11-03T19:33:35.687Z,101257.00
2018-11-03T19:36:04.281Z,101257.00
2018-11-03T19:38:32.684Z,101246.00
2018-11-03T19:41:00.888Z,101250.00
2018-11-03T19:43:29.086Z,101242.00
2018-11-03T19:45:57.289Z,101246.00
2018-11-03T19:48:25.666Z,101237.00
2018-11-03T19:50:53.979Z,101242.00
2018-11-03T19:53:22.300Z,101246.00
2018-11-03T19:55:50.487Z,101246.00
2018-11-03T19:58:18.641Z,101243.00
2018-11-03T20:00:46.931Z,101244.00
2018-11-03T20:03:15.185Z,101241.00
2018-11-03T20:05:43.312Z,101243.00
2018-11-03T20:08:11.555Z,101243.00
2018-11-03T20:10:39.892Z,101235.00
2018-11-03T20:13:08.069Z,101240.00
2018-11-03T20:15:36.389Z,101238.00
2018-11-03T20:18:04.877Z,101237.00
2018-11-03T20:20:32.963Z,101230.00
2018-11-03T20:23:01.231Z,101223.00
2018-11-03T20:25:29.458Z,101235.00
2018-11-03T20:27:57.863Z,101225.00
2018-11-03T20:30:26.262Z,101228.00
2018-11-03T20:32:54.471Z,101213.00
2018-11-03T20:35:22.605Z,101214.00
2018-11-03T20:37:50.908Z,101203.00
2018-11-03T20:40:19.208Z,101201.00
2018-11-03T20:42:47.462Z,101203.00
2018-11-03T20:45:15.883Z,101202.00
2018-11-03T20:47:44.251Z,101193.00
2018-11-03T20:50:14.275Z,101181.00
2018-11-03T20:52:42.616Z,101179.00
2018-11-03T20:55:11.565Z,101182.00
2018-11-03T20:57:40.860Z,101178.00
2018-11-03T21:00:12.419Z,101172.00
2018-11-03T21:02:40.587Z,101173.00
2018-11-03T21:05:10.039Z,101171.00
2018-11-03T21:07:38.942Z,101183.00
2018-11-03T21:10:07.367Z,101182.00
2018-11-03T21:12:35.652Z,101178.00
2018-11-03T21:15:04.008Z,101182.00
2018-11-03T21:17:32.280Z,101172.00
2018-11-03T21:20:00.755Z,101173.00
2018-11-03T21:22:29.011Z,101162.00
2018-11-03T21:24:57.210Z,101171.00
2018-11-03T21:27:32.371Z,101167.00
2018-11-03T21:30:00.962Z,101160.00
2018-11-03T21:32:29.271Z,101162.00
2018-11-03T21:34:57.529Z,101168.00
2018-11-03T21:37:25.777Z,101162.00
2018-11-03T21:39:54.114Z,101158.00
2018-11-03T21:42:22.333Z,101153.00
2018-11-03T21:44:50.798Z,101143.00
2018-11-03T21:47:19.037Z,101135.00
2018-11-03T21:49:47.293Z,101140.00
2018-11-03T21:52:15.503Z,101131.00
2018-11-03T21:54:43.647Z,101134.00
2018-11-03T21:57:12.693Z,101134.00
2018-11-03T21:59:40.912Z,101122.00
2018-11-03T22:02:09.041Z,101123.00
2018-11-03T22:04:37.190Z,101124.00
2018-11-03T22:07:05.607Z,101124.00
2018-11-03T22:09:33.857Z,101132.00
2018-11-03T22:12:02.150Z,101118.00
2018-11-03T22:14:30.310Z,101118.00
2018-11-03T22:16:58.505Z,101123.00
2018-11-03T22:19:26.742Z,101123.00
2018-11-03T22:21:55.024Z,101120.00
2018-11-03T22:24:23.073Z,101121.00
2018-11-03T22:26:51.220Z,101123.00
2018-11-03T22:29:19.456Z,101119.00
2018-11-03T22:31:47.618Z,101103.00
2018-11-03T22:34:15.760Z,101100.00
2018-11-03T22:36:43.930Z,101094.00
2018-11-03T22:39:12.167Z,101094.00
2018-11-03T22:41:40.326Z,101086.00
2018-11-03T22:44:08.889Z,101085.00
2018-11-03T22:46:37.062Z,101086.00
2018-11-03T22:49:05.373Z,101090.00
2018-11-03T22:51:33.649Z,101087.00
2018-11-03T22:54:01.762Z,101081.00
2018-11-03T22:56:29.859Z,101077.00
2018-11-03T22:58:58.202Z,101080.00
2018-11-03T23:01:26.476Z,101069.00
2018-11-03T23:03:54.651Z,101077.00
2018-11-03T23:06:22.774Z,101069.00
2018-11-03T23:08:50.892Z,101059.00
2018-11-03T23:11:19.030Z,101062.00
2018-11-03T23:13:47.235Z,101048.00
2018-11-03T23:16:21.985Z,101058.00
2018-11-03T23:18:50.193Z,101053.00
2018-11-03T23:21:18.315Z,101041.00
2018-11-03T23:23:46.545Z,101045.00
2018-11-03T23:26:14.658Z,101038.00
2018-11-03T23:28:42.753Z,101038.00
2018-11-03T23:31:10.978Z,101024.00
2018-11-03T23:33:39.070Z,101023.00
2018-11-03T23:36:07.185Z,101024.00
2018-11-03T23:38:35.272Z,101024.00
2018-11-03T23:41:03.408Z,101015.00
2018-11-03T23:43:31.477Z,101022.00
2018-11-03T23:45:59.691Z,101019.00
2018-11-03T23:48:27.819Z,101013.00
2018-11-03T23:50:55.877Z,101010.00
2018-11-03T23:53:24.208Z,101004.00
2018-11-03T23:55:52.215Z,101005.00
2018-11-03T23:58:20.352Z,101002.00
